createdAt,value
2022-08-24T00:01:13.804Z,50.50
2022-08-24T00:03:41.201Z,50.50
2022-08-24T00:06:09.237Z,50.70
2022-08-24T00:08:36.437Z,50.60
2022-08-24T00:11:03.217Z,50.30
2022-08-24T00:13:32.546Z,50.00
2022-08-24T00:16:05.814Z,49.70
2022-08-24T00:18:33.531Z,49.30
2022-08-24T00:21:00.373Z,49.00
2022-08-24T00:23:27.112Z,48.70
2022-08-24T00:25:53.845Z,48.50
2022-08-24T00:28:20.552Z,48.70
2022-08-24T00:30:47.412Z,48.90
2022-08-24T00:33:14.106Z,48.90
2022-08-24T00:35:40.796Z,49.10
2022-08-24T00:38:08.322Z,49.10
2022-08-24T00:40:39.023Z,49.20
2022-08-24T00:43:06.326Z,49.20
2022-08-24T00:45:53.315Z,49.20
2022-08-24T00:48:25.020Z,49.20
2022-08-24T00:50:58.953Z,49.20
2022-08-24T00:53:31.241Z,49.20
2022-08-24T00:55:58.794Z,49.30
2022-08-24T00:58:29.996Z,49.30
2022-08-24T01:00:57.962Z,49.30
2022-08-24T01:03:26.618Z,49.30
2022-08-24T01:05:53.330Z,49.40
2022-08-24T01:08:23.333Z,49.30
2022-08-24T01:10:54.255Z,49.40
2022-08-24T01:13:21.172Z,49.40
2022-08-24T01:15:48.480Z,49.50
2022-08-24T01:18:35.070Z,49.60
2022-08-24T01:21:07.754Z,49.50
2022-08-24T01:23:41.554Z,49.30
2022-08-24T01:26:10.690Z,49.30
2022-08-24T01:28:39.998Z,49.20
2022-08-24T01:31:07.938Z,49.20
2022-08-24T01:33:34.728Z,49.20
2022-08-24T01:36:03.322Z,49.30
2022-08-24T01:38:30.055Z,49.30
2022-08-24T01:40:58.161Z,49.30
2022-08-24T01:43:25.035Z,49.50
2022-08-24T01:45:51.794Z,49.60
2022-08-24T01:48:23.016Z,49.90
2022-08-24T01:50:50.354Z,49.00
2022-08-24T01:53:17.096Z,48.70
2022-08-24T01:55:44.878Z,48.30
2022-08-24T01:58:11.605Z,48.20
2022-08-24T02:00:38.328Z,47.70
2022-08-24T02:03:05.350Z,47.80
2022-08-24T02:05:32.368Z,47.90
2022-08-24T02:07:59.079Z,47.90
2022-08-24T02:10:26.103Z,48.00
2022-08-24T02:12:59.026Z,48.30
2022-08-24T02:15:27.547Z,48.20
2022-08-24T02:17:55.004Z,48.20
2022-08-24T02:20:21.828Z,48.40
2022-08-24T02:22:49.684Z,48.40
2022-08-24T02:25:16.837Z,48.50
2022-08-24T02:27:43.631Z,48.50
2022-08-24T02:30:10.878Z,48.50
2022-08-24T02:32:38.479Z,48.50
2022-08-24T02:35:05.428Z,48.50
2022-08-24T02:37:32.154Z,48.50
2022-08-24T02:39:59.032Z,48.50
2022-08-24T02:42:25.890Z,48.60
2022-08-24T02:44:53.714Z,49.10
2022-08-24T02:47:21.837Z,48.50
2022-08-24T02:50:05.365Z,48.50
2022-08-24T02:52:32.067Z,48.50
2022-08-24T02:54:58.778Z,48.50
2022-08-24T02:57:25.596Z,49.10
2022-08-24T02:59:52.277Z,48.50
2022-08-24T03:02:19.100Z,48.50
2022-08-24T03:04:49.308Z,48.60
2022-08-24T03:07:16.336Z,48.70
2022-08-24T03:09:43.028Z,48.60
2022-08-24T03:12:09.787Z,48.70
2022-08-24T03:14:36.491Z,48.70
2022-08-24T03:17:03.310Z,48.70
2022-08-24T03:19:30.066Z,48.70
2022-08-24T03:21:56.816Z,48.80
2022-08-24T03:24:23.532Z,48.70
2022-08-24T03:26:50.349Z,48.80
2022-08-24T03:29:17.128Z,48.90
2022-08-24T03:31:43.893Z,48.80
2022-08-24T03:34:13.486Z,48.50
2022-08-24T03:36:40.835Z,48.10
2022-08-24T03:39:07.598Z,47.90
2022-08-24T03:41:36.508Z,47.70
2022-08-24T03:44:03.519Z,47.30
2022-08-24T03:46:30.788Z,47.30
2022-08-24T03:48:57.772Z,47.30
2022-08-24T03:51:25.952Z,47.40
2022-08-24T03:53:52.727Z,47.50
2022-08-24T03:56:19.635Z,47.60
2022-08-24T03:58:46.832Z,47.80
2022-08-24T04:01:13.713Z,47.90
2022-08-24T04:03:42.478Z,47.90
2022-08-24T04:06:09.456Z,47.90
2022-08-24T04:08:38.846Z,47.90
2022-08-24T04:11:05.645Z,48.10
2022-08-24T04:13:32.342Z,48.00
2022-08-24T04:16:03.973Z,48.10
2022-08-24T04:18:30.882Z,48.10
2022-08-24T04:20:57.612Z,48.10
2022-08-24T04:23:29.147Z,48.20
2022-08-24T04:26:11.472Z,48.10
2022-08-24T04:28:38.260Z,48.20
2022-08-24T04:31:05.547Z,48.20
2022-08-24T04:33:32.329Z,48.20
2022-08-24T04:35:59.083Z,48.30
2022-08-24T04:38:26.827Z,48.30
2022-08-24T04:40:53.695Z,48.40
2022-08-24T04:43:20.463Z,48.30
2022-08-24T04:45:48.134Z,48.40
2022-08-24T04:48:15.633Z,48.40
2022-08-24T04:50:42.832Z,48.40
2022-08-24T04:53:10.058Z,48.50
2022-08-24T04:55:46.856Z,48.50
2022-08-24T04:58:13.973Z,48.40
2022-08-24T05:00:40.859Z,48.50
2022-08-24T05:03:07.637Z,48.50
2022-08-24T05:05:34.570Z,48.60
2022-08-24T05:08:01.282Z,48.70
2022-08-24T05:10:33.579Z,48.60
2022-08-24T05:13:00.666Z,48.70
2022-08-24T05:15:27.540Z,48.80
2022-08-24T05:17:54.341Z,48.70
2022-08-24T05:20:22.359Z,48.40
2022-08-24T05:22:55.515Z,48.20
2022-08-24T05:25:22.735Z,47.90
2022-08-24T05:27:49.503Z,47.70
2022-08-24T05:30:16.274Z,47.30
2022-08-24T05:32:42.976Z,47.30
2022-08-24T05:35:09.805Z,47.30
2022-08-24T05:37:36.917Z,47.40
2022-08-24T05:40:07.833Z,47.50
2022-08-24T05:42:35.237Z,47.70
2022-08-24T05:45:01.993Z,47.80
2022-08-24T05:47:28.726Z,47.90
2022-08-24T05:49:55.464Z,47.90
2022-08-24T05:52:22.407Z,48.00
2022-08-24T05:54:53.004Z,48.20
2022-08-24T05:57:20.079Z,48.30
2022-08-24T05:59:46.807Z,48.50
2022-08-24T06:02:13.673Z,48.60
2022-08-24T06:04:40.488Z,48.70
2022-08-24T06:07:10.417Z,48.80
2022-08-24T06:09:37.625Z,48.90
2022-08-24T06:12:04.483Z,49.00
2022-08-24T06:14:31.244Z,49.40
2022-08-24T06:16:58.085Z,49.40
2022-08-24T06:19:26.961Z,49.40
2022-08-24T06:21:53.784Z,49.40
2022-08-24T06:24:43.489Z,49.40
2022-08-24T06:27:22.592Z,49.30
2022-08-24T06:29:50.162Z,49.40
2022-08-24T06:32:17.242Z,49.60
2022-08-24T06:34:43.950Z,49.70
2022-08-24T06:37:10.674Z,49.80
2022-08-24T06:39:37.478Z,49.90
2022-08-24T06:42:04.402Z,49.90
2022-08-24T06:44:31.947Z,50.10
2022-08-24T06:46:58.766Z,50.10
2022-08-24T06:49:25.539Z,50.10
2022-08-24T06:51:52.317Z,50.10
2022-08-24T06:54:20.945Z,50.20
2022-08-24T06:56:47.717Z,50.40
2022-08-24T06:59:14.615Z,50.20
2022-08-24T07:01:41.436Z,50.20
2022-08-24T07:04:08.549Z,50.30
2022-08-24T07:06:35.388Z,50.10
2022-08-24T07:09:02.126Z,49.70
2022-08-24T07:11:28.859Z,49.70
2022-08-24T07:13:55.604Z,49.50
2022-08-24T07:16:22.834Z,49.50
2022-08-24T07:18:50.542Z,51.10
2022-08-24T07:21:19.556Z,52.00
2022-08-24T07:23:47.389Z,52.70
2022-08-24T07:26:21.435Z,52.80
2022-08-24T07:28:49.890Z,53.70
2022-08-24T07:31:16.780Z,53.80
2022-08-24T07:33:44.933Z,54.10
2022-08-24T07:36:11.755Z,54.80
2022-08-24T07:38:47.688Z,54.70
2022-08-24T07:44:04.245Z,53.70
2022-08-24T07:46:32.600Z,53.30
2022-08-24T07:49:11.585Z,53.20
2022-08-24T07:51:43.762Z,52.80
2022-08-24T07:54:13.697Z,52.80
2022-08-24T07:56:40.832Z,52.80
2022-08-24T07:59:11.038Z,52.80
2022-08-24T08:01:40.289Z,52.80
2022-08-24T08:04:07.124Z,52.70
2022-08-24T08:06:33.859Z,52.80
2022-08-24T08:09:00.852Z,52.70
2022-08-24T08:11:27.548Z,52.50
2022-08-24T08:13:54.440Z,52.50
2022-08-24T08:16:21.810Z,52.50
2022-08-24T08:18:56.306Z,52.60
2022-08-24T08:21:50.885Z,52.50
2022-08-24T08:24:21.140Z,52.60
2022-08-24T08:26:50.585Z,52.80
2022-08-24T08:29:18.521Z,53.70
2022-08-24T08:31:45.608Z,53.90
2022-08-24T08:34:13.194Z,53.90
2022-08-24T08:36:40.349Z,53.10
2022-08-24T08:39:07.696Z,53.10
2022-08-24T08:41:48.835Z,52.30
2022-08-24T08:44:20.797Z,51.90
2022-08-24T08:46:48.046Z,51.50
2022-08-24T08:49:44.392Z,51.10
2022-08-24T08:52:27.362Z,50.90
2022-08-24T08:55:00.362Z,50.90
2022-08-24T08:57:30.407Z,51.10
2022-08-24T09:00:15.568Z,51.10
2022-08-24T09:02:46.140Z,51.20
2022-08-24T09:05:36.277Z,51.50
2022-08-24T09:08:20.249Z,51.60
2022-08-24T09:10:47.168Z,51.60
2022-08-24T09:13:17.154Z,51.80
2022-08-24T09:15:57.464Z,51.90
2022-08-24T09:18:28.302Z,52.10
2022-08-24T09:21:17.444Z,52.20
2022-08-24T09:24:03.101Z,52.20
2022-08-24T09:26:40.133Z,52.50
2022-08-24T09:29:13.536Z,53.00
2022-08-24T09:31:51.458Z,52.70
2022-08-24T09:34:35.540Z,52.70
2022-08-24T09:37:02.758Z,52.70
2022-08-24T09:39:32.969Z,52.60
2022-08-24T09:42:00.980Z,52.50
2022-08-24T09:44:29.257Z,52.50
2022-08-24T09:47:10.594Z,52.50
2022-08-24T09:49:44.131Z,52.60
2022-08-24T09:52:15.776Z,52.60
2022-08-24T09:54:54.808Z,52.40
2022-08-24T09:57:21.521Z,52.30
2022-08-24T10:00:15.964Z,52.10
2022-08-24T10:02:42.955Z,51.80
2022-08-24T10:05:09.843Z,51.40
2022-08-24T10:07:41.345Z,51.10
2022-08-24T10:10:27.007Z,50.80
2022-08-24T10:12:56.316Z,50.50
2022-08-24T10:15:28.698Z,50.30
2022-08-24T10:17:58.722Z,50.50
2022-08-24T10:20:25.644Z,50.40
2022-08-24T10:23:03.060Z,50.60
2022-08-24T10:25:39.510Z,50.80
2022-08-24T10:28:21.715Z,51.00
2022-08-24T10:30:54.372Z,51.10
2022-08-24T10:33:21.338Z,51.10
2022-08-24T10:36:06.927Z,51.40
2022-08-24T10:39:10.673Z,51.50
2022-08-24T10:42:10.689Z,51.60
2022-08-24T10:44:40.849Z,51.70
2022-08-24T10:47:13.877Z,51.70
2022-08-24T10:49:52.888Z,51.90
2022-08-24T10:52:32.021Z,51.90
2022-08-24T10:55:11.411Z,52.00
2022-08-24T10:57:39.847Z,52.00
2022-08-24T11:00:22.575Z,52.00
2022-08-24T11:02:52.664Z,52.00
2022-08-24T11:05:42.812Z,52.00
2022-08-24T11:08:10.364Z,51.70
2022-08-24T11:10:38.123Z,51.30
2022-08-24T11:13:25.994Z,51.10
2022-08-24T11:15:53.761Z,50.80
2022-08-24T11:18:20.571Z,50.60
2022-08-24T11:20:47.837Z,51.00
2022-08-24T11:23:15.737Z,51.10
2022-08-24T11:25:44.451Z,51.10
2022-08-24T11:28:16.511Z,51.20
2022-08-24T11:30:43.259Z,51.60
2022-08-24T11:33:25.333Z,51.60
2022-08-24T11:35:52.097Z,51.80
2022-08-24T11:38:30.729Z,51.80
2022-08-24T11:40:59.836Z,51.80
2022-08-24T11:43:35.735Z,52.30
2022-08-24T11:46:21.321Z,52.70
2022-08-24T11:49:03.402Z,52.60
2022-08-24T11:51:33.267Z,53.50
2022-08-24T11:54:03.468Z,53.20
2022-08-24T11:57:02.692Z,53.40
2022-08-24T11:59:41.729Z,53.30
2022-08-24T12:02:10.173Z,53.00
2022-08-24T12:04:42.707Z,53.00
2022-08-24T12:07:15.788Z,52.80
2022-08-24T12:09:42.695Z,52.50
2022-08-24T12:12:09.399Z,52.10
2022-08-24T12:14:38.392Z,51.70
2022-08-24T12:17:05.156Z,51.40
2022-08-24T12:19:33.462Z,51.10
2022-08-24T12:22:03.672Z,50.90
2022-08-24T12:24:31.895Z,51.10
2022-08-24T12:27:02.720Z,51.20
2022-08-24T12:29:29.424Z,51.40
2022-08-24T12:32:01.218Z,51.40
2022-08-24T12:34:41.351Z,51.50
2022-08-24T12:37:16.312Z,51.80
2022-08-24T12:39:47.987Z,51.80
2022-08-24T12:42:17.116Z,52.00
2022-08-24T12:44:49.991Z,52.00
2022-08-24T12:47:19.223Z,52.00
2022-08-24T12:49:48.539Z,52.10
2022-08-24T12:52:15.281Z,52.00
2022-08-24T12:54:47.372Z,52.10
2022-08-24T12:57:25.420Z,52.20
2022-08-24T12:59:56.303Z,52.20
2022-08-24T13:02:23.109Z,52.10
2022-08-24T13:04:49.880Z,52.10
2022-08-24T13:07:16.640Z,52.10
2022-08-24T13:09:44.001Z,52.20
2022-08-24T13:12:33.360Z,52.80
2022-08-24T13:15:19.843Z,52.00
2022-08-24T13:17:46.579Z,51.70
2022-08-24T13:20:21.010Z,51.40
2022-08-24T13:22:49.004Z,51.10
2022-08-24T13:25:27.409Z,50.70
2022-08-24T13:28:01.408Z,50.70
2022-08-24T13:30:29.866Z,50.70
2022-08-24T13:33:01.913Z,50.60
2022-08-24T13:35:30.248Z,51.00
2022-08-24T13:38:15.714Z,51.20
2022-08-24T13:40:46.307Z,51.30
2022-08-24T13:43:16.637Z,51.50
2022-08-24T13:46:03.641Z,51.50
2022-08-24T13:48:33.469Z,51.70
2022-08-24T13:51:05.613Z,51.80
2022-08-24T13:53:41.499Z,52.00
2022-08-24T13:56:21.525Z,52.00
2022-08-24T13:59:12.603Z,52.00
2022-08-24T14:01:39.404Z,52.10
2022-08-24T14:04:15.333Z,52.00
2022-08-24T14:06:55.592Z,52.20
2022-08-24T14:09:38.370Z,52.10
2022-08-24T14:12:07.371Z,52.20
2022-08-24T14:14:42.545Z,52.00
2022-08-24T14:17:35.465Z,51.90
2022-08-24T14:20:06.844Z,51.50
2022-08-24T14:22:37.009Z,51.30
2022-08-24T14:25:04.857Z,50.80
2022-08-24T14:27:52.487Z,50.70
2022-08-24T14:30:20.288Z,50.40
2022-08-24T14:33:00.545Z,50.60
2022-08-24T14:35:31.513Z,50.70
2022-08-24T14:38:04.846Z,51.00
2022-08-24T14:40:37.333Z,51.30
2022-08-24T14:43:30.149Z,51.40
2022-08-24T14:46:04.796Z,51.70
2022-08-24T14:51:54.834Z,52.10
2022-08-24T14:54:24.680Z,52.20
2022-08-24T14:57:11.548Z,52.20
2022-08-24T14:59:58.570Z,52.40
2022-08-24T15:02:39.731Z,52.40
2022-08-24T15:05:06.581Z,52.40
2022-08-24T15:07:34.979Z,52.40
2022-08-24T15:10:02.148Z,52.30
2022-08-24T15:12:39.530Z,52.40
2022-08-24T15:15:07.012Z,52.30
2022-08-24T15:17:52.699Z,52.00
2022-08-24T15:20:21.105Z,51.70
2022-08-24T15:23:09.014Z,51.40
2022-08-24T15:25:36.482Z,51.00
2022-08-24T15:28:08.043Z,50.80
2022-08-24T15:30:35.985Z,50.60
2022-08-24T15:33:10.602Z,50.50
2022-08-24T15:35:39.663Z,50.70
2022-08-24T15:38:21.712Z,50.70
2022-08-24T15:40:50.445Z,50.90
2022-08-24T15:43:18.210Z,51.10
2022-08-24T15:45:47.071Z,51.20
2022-08-24T15:48:14.599Z,51.30
2022-08-24T15:50:42.216Z,51.30
2022-08-24T15:53:09.091Z,51.50
2022-08-24T15:55:38.880Z,51.60
2022-08-24T15:58:14.076Z,51.70
2022-08-24T16:00:59.541Z,51.80
2022-08-24T16:03:45.359Z,51.80
2022-08-24T16:06:30.987Z,51.90
2022-08-24T16:08:59.128Z,51.90
2022-08-24T16:11:34.523Z,52.00
2022-08-24T16:14:03.206Z,52.00
2022-08-24T16:16:32.247Z,52.00
2022-08-24T16:18:59.696Z,51.90
2022-08-24T16:21:39.311Z,51.80
2022-08-24T16:24:13.606Z,51.50
2022-08-24T16:26:46.464Z,51.20
2022-08-24T16:29:32.681Z,51.00
2022-08-24T16:32:23.112Z,50.80
2022-08-24T16:35:18.339Z,50.50
2022-08-24T16:37:56.649Z,50.70
2022-08-24T16:40:23.668Z,50.80
2022-08-24T16:42:50.976Z,50.80
2022-08-24T16:45:20.162Z,50.90
2022-08-24T16:47:47.973Z,51.20
2022-08-24T16:50:15.908Z,51.30
2022-08-24T16:52:42.662Z,51.40
2022-08-24T16:55:09.742Z,51.50
2022-08-24T16:57:41.943Z,51.50
2022-08-24T17:00:10.640Z,51.70
2022-08-24T17:02:37.852Z,51.70
2022-08-24T17:05:05.148Z,51.90
2022-08-24T17:07:32.015Z,51.90
2022-08-24T17:09:59.447Z,52.60
2022-08-24T17:12:27.760Z,52.00
2022-08-24T17:14:55.144Z,52.00
2022-08-24T17:17:24.700Z,52.20
2022-08-24T17:19:54.095Z,52.60
2022-08-24T17:22:24.130Z,53.10
2022-08-24T17:24:51.696Z,53.10
2022-08-24T17:27:20.906Z,52.80
2022-08-24T17:29:47.681Z,52.10
2022-08-24T17:32:15.018Z,51.70
2022-08-24T17:34:43.068Z,51.40
2022-08-24T17:37:10.459Z,51.20
2022-08-24T17:39:37.638Z,51.30
2022-08-24T17:42:12.743Z,51.40
2022-08-24T17:44:53.553Z,51.50
2022-08-24T17:47:20.933Z,51.60
2022-08-24T17:49:47.784Z,51.60
2022-08-24T17:52:17.189Z,51.70
2022-08-24T17:54:44.619Z,51.90
2022-08-24T17:57:12.660Z,52.00
2022-08-24T17:59:39.634Z,52.00
2022-08-24T18:02:07.917Z,52.10
2022-08-24T18:04:35.372Z,52.20
2022-08-24T18:07:03.682Z,52.20
2022-08-24T18:09:32.999Z,52.20
2022-08-24T18:12:02.525Z,52.30
2022-08-24T18:14:29.749Z,52.30
2022-08-24T18:16:57.469Z,52.40
2022-08-24T18:19:25.420Z,52.40
2022-08-24T18:21:52.190Z,52.40
2022-08-24T18:24:20.069Z,52.20
2022-08-24T18:26:47.809Z,52.00
2022-08-24T18:29:19.019Z,51.70
2022-08-24T18:31:47.830Z,51.50
2022-08-24T18:34:21.527Z,51.20
2022-08-24T18:36:48.478Z,50.90
2022-08-24T18:39:15.382Z,50.90
2022-08-24T18:41:42.617Z,51.00
2022-08-24T18:44:15.578Z,51.20
2022-08-24T18:46:43.635Z,51.40
2022-08-24T18:49:10.679Z,52.20
2022-08-24T18:51:37.829Z,51.60
2022-08-24T18:54:09.525Z,51.90
2022-08-24T18:56:36.525Z,51.90
2022-08-24T18:59:03.763Z,52.10
2022-08-24T19:01:30.692Z,52.20
2022-08-24T19:03:57.789Z,52.30
2022-08-24T19:06:25.497Z,52.40
2022-08-24T19:08:52.779Z,52.40
2022-08-24T19:11:22.793Z,52.70
2022-08-24T19:13:49.928Z,53.30
2022-08-24T19:16:17.349Z,53.40
2022-08-24T19:18:45.265Z,53.10
2022-08-24T19:21:12.562Z,53.10
2022-08-24T19:23:39.846Z,53.10
2022-08-24T19:26:06.956Z,53.10
2022-08-24T19:28:34.184Z,53.20
2022-08-24T19:31:02.444Z,53.20
2022-08-24T19:33:32.261Z,53.10
2022-08-24T19:35:59.352Z,53.10
2022-08-24T19:38:26.969Z,53.10
2022-08-24T19:40:54.876Z,53.10
2022-08-24T19:43:23.763Z,53.50
2022-08-24T19:46:05.576Z,52.70
2022-08-24T19:48:33.583Z,52.40
2022-08-24T19:51:04.094Z,52.20
2022-08-24T19:53:31.596Z,51.80
2022-08-24T19:55:58.699Z,51.70
2022-08-24T19:58:30.051Z,51.60
2022-08-24T20:01:04.677Z,51.60
2022-08-24T20:03:32.047Z,51.70
2022-08-24T20:06:00.380Z,51.60
2022-08-24T20:08:27.451Z,51.60
2022-08-24T20:10:59.058Z,51.80
2022-08-24T20:13:27.116Z,51.90
2022-08-24T20:15:55.124Z,51.90
2022-08-24T20:18:26.833Z,52.10
2022-08-24T20:20:54.400Z,52.20
2022-08-24T20:23:21.438Z,52.30
2022-08-24T20:25:50.851Z,52.30
2022-08-24T20:28:29.270Z,52.40
2022-08-24T20:30:58.463Z,52.50
2022-08-24T20:33:28.267Z,52.40
2022-08-24T20:35:56.359Z,52.50
2022-08-24T20:38:24.002Z,52.50
2022-08-24T20:40:51.510Z,52.60
2022-08-24T20:43:19.199Z,52.60
2022-08-24T20:45:46.171Z,52.60
2022-08-24T20:48:13.205Z,52.70
2022-08-24T20:50:43.688Z,52.70
2022-08-24T20:53:11.717Z,52.80
2022-08-24T20:55:39.316Z,52.70
2022-08-24T20:58:06.261Z,52.80
2022-08-24T21:00:34.025Z,52.80
2022-08-24T21:03:01.299Z,52.80
2022-08-24T21:05:28.568Z,52.80
2022-08-24T21:07:58.003Z,52.50
2022-08-24T21:10:26.903Z,52.20
2022-08-24T21:12:54.127Z,51.90
2022-08-24T21:15:22.758Z,51.70
2022-08-24T21:17:50.424Z,51.60
2022-08-24T21:20:19.349Z,51.30
2022-08-24T21:22:46.868Z,51.40
2022-08-24T21:25:15.026Z,51.40
2022-08-24T21:27:42.997Z,51.50
2022-08-24T21:30:10.744Z,51.60
2022-08-24T21:32:56.307Z,51.60
2022-08-24T21:35:23.306Z,51.80
2022-08-24T21:37:50.671Z,51.90
2022-08-24T21:40:17.955Z,51.90
2022-08-24T21:42:45.001Z,52.20
2022-08-24T21:45:13.304Z,52.10
2022-08-24T21:47:40.370Z,52.20
2022-08-24T21:50:07.865Z,52.30
2022-08-24T21:52:34.992Z,52.40
2022-08-24T21:55:02.239Z,52.50
2022-08-24T21:57:29.398Z,53.10
2022-08-24T21:59:56.343Z,52.50
2022-08-24T22:02:23.260Z,52.50
2022-08-24T22:04:56.153Z,52.60
2022-08-24T22:07:24.231Z,52.60
2022-08-24T22:09:51.492Z,52.60
2022-08-24T22:12:18.877Z,52.70
2022-08-24T22:14:45.986Z,52.60
2022-08-24T22:17:13.047Z,52.80
2022-08-24T22:19:40.546Z,52.70
2022-08-24T22:22:07.347Z,52.80
2022-08-24T22:24:34.410Z,52.80
2022-08-24T22:27:01.455Z,52.80
2022-08-24T22:29:29.059Z,52.60
2022-08-24T22:31:56.307Z,52.50
2022-08-24T22:34:24.493Z,52.20
2022-08-24T22:36:51.912Z,52.00
2022-08-24T22:39:20.619Z,51.80
2022-08-24T22:41:47.746Z,51.60
2022-08-24T22:44:21.119Z,51.30
2022-08-24T22:46:52.311Z,51.30
2022-08-24T22:49:20.031Z,51.40
2022-08-24T22:51:47.100Z,51.60
2022-08-24T22:54:14.011Z,51.50
2022-08-24T22:56:41.965Z,51.50
2022-08-24T22:59:09.074Z,51.70
2022-08-24T23:01:37.389Z,51.70
2022-08-24T23:04:05.645Z,51.80
2022-08-24T23:06:32.701Z,52.00
2022-08-24T23:08:59.651Z,52.00
2022-08-24T23:11:27.348Z,52.10
2022-08-24T23:13:54.794Z,52.10
2022-08-24T23:16:22.325Z,52.20
2022-08-24T23:19:07.944Z,52.30
2022-08-24T23:21:36.257Z,52.30
2022-08-24T23:24:03.363Z,52.30
2022-08-24T23:26:32.407Z,52.40
2022-08-24T23:28:59.890Z,52.40
2022-08-24T23:31:27.538Z,52.40
2022-08-24T23:33:54.577Z,52.40
2022-08-24T23:36:22.003Z,52.40
2022-08-24T23:38:49.373Z,52.40
2022-08-24T23:41:17.354Z,52.40
2022-08-24T23:43:44.429Z,52.50
2022-08-24T23:46:11.895Z,52.40
2022-08-24T23:48:38.938Z,52.40
2022-08-24T23:51:10.655Z,52.40
2022-08-24T23:53:37.674Z,52.30
2022-08-24T23:56:10.872Z,52.00
2022-08-24T23:58:40.372Z,51.80
